| time (UTC) | temp F | wind direction | speed knots | gust knots | rain 1hr in | rain 24hr in | rain mn in | humidity % | barometer mb |
| 20260510045711 | 54 | 10 | 4.3 | 7.0 | 0.00 | 0.00 | 0.00 | 42 | 1017.1 |
| 20260510044710 | 54 | 32 | 4.3 | 11.3 | 0.00 | 0.00 | 0.00 | 42 | 1017.1 |
| 20260510043711 | 55 | 43 | 5.2 | 11.3 | 0.00 | 0.00 | 0.00 | 41 | 1016.8 |
| 20260510041711 | 55 | 353 | 4.3 | 10.4 | 0.00 | 0.00 | 0.00 | 42 | 1016.6 |
| 20260510040711 | 55 | 28 | 4.3 | 8.7 | 0.00 | 0.00 | 0.00 | 42 | 1016.6 |
| 20260510035711 | 56 | 13 | 2.6 | 8.7 | 0.00 | 0.00 | 0.00 | 42 | 1016.5 |
| 20260510034710 | 56 | 5 | 4.3 | 7.8 | 0.00 | 0.00 | 0.00 | 42 | 1016.4 |
| 20260510033711 | 56 | 36 | 2.6 | 7.8 | 0.00 | 0.00 | 0.00 | 42 | 1016.2 |
| 20260510031710 | 57 | 5 | 3.5 | 7.8 | 0.00 | 0.00 | 0.00 | 41 | 1015.6 |
| 20260510030710 | 58 | 3 | 2.6 | 7.8 | 0.00 | 0.00 | 0.00 | 41 | 1015.3 |
| 20260510025711 | 58 | 9 | 3.5 | 7.8 | 0.00 | 0.00 | 0.00 | 40 | 1015.2 |
| 20260510024711 | 59 | 0 | 3.5 | 7.8 | 0.00 | 0.00 | 0.00 | 40 | 1014.9 |
| 20260510022710 | 60 | 8 | 4.3 | 7.8 | 0.00 | 0.00 | 0.00 | 38 | 1014.4 |
| 20260510021711 | 61 | 327 | 4.3 | 11.3 | 0.00 | 0.00 | 0.00 | 37 | 1014.2 |
| 20260510015710 | 62 | 0 | 5.2 | 10.4 | 0.00 | 0.00 | 0.00 | 35 | 1013.7 |
| 20260510014710 | 63 | 3 | 4.3 | 7.8 | 0.00 | 0.00 | 0.00 | 34 | 1013.5 |
| 20260510013710 | 64 | 24 | 4.3 | 10.4 | 0.00 | 0.00 | 0.00 | 34 | 1013.1 |
| 20260510012710 | 65 | 17 | 5.2 | 11.3 | 0.00 | 0.00 | 0.00 | 34 | 1012.9 |
| 20260510011710 | 66 | 335 | 6.1 | 10.4 | 0.00 | 0.00 | 0.00 | 33 | 1012.7 |
| 20260510010710 | 66 | 0 | 6.1 | 11.3 | 0.00 | 0.00 | 0.00 | 33 | 1012.4 |
| 20260510005711 | 67 | 335 | 2.6 | 10.4 | 0.00 | 0.00 | 0.00 | 32 | 1012.2 |
| 20260510004710 | 67 | 5 | 4.3 | 11.3 | 0.00 | 0.00 | 0.00 | 31 | 1012.1 |
| 20260510003710 | 68 | 353 | 7.0 | 12.2 | 0.00 | 0.00 | 0.00 | 30 | 1012.0 |
| 20260510002710 | 68 | 26 | 7.0 | 14.8 | 0.00 | 0.00 | 0.00 | 30 | 1011.9 |
| 20260510000710 | 69 | 358 | 8.7 | 13.0 | 0.00 | 0.00 | 0.00 | 33 | 1011.5 |
| 20260509235711 | 69 | 11 | 4.3 | 10.4 | 0.00 | 0.00 | 0.00 | 37 | 1011.5 |
| 20260509234711 | 69 | 15 | 3.5 | 10.4 | 0.00 | 0.00 | 0.00 | 42 | 1011.3 |
| 20260509233711 | 67 | 0 | 5.2 | 8.7 | 0.00 | 0.00 | 0.00 | 43 | 1011.3 |
| 20260509231710 | 67 | 33 | 4.3 | 7.8 | 0.00 | 0.00 | 0.00 | 45 | 1011.4 |
| 20260509230711 | 67 | 0 | 1.7 | 6.1 | 0.00 | 0.00 | 0.00 | 45 | 1011.3 |
| 20260509225711 | 67 | 16 | 3.5 | 10.4 | 0.00 | 0.00 | 0.00 | 43 | 1011.4 |
| 20260509224710 | 67 | 330 | 4.3 | 7.8 | 0.00 | 0.00 | 0.00 | 44 | 1011.4 |
| 20260509223710 | 67 | 358 | 3.5 | 8.7 | 0.00 | 0.00 | 0.00 | 45 | 1011.3 |
| 20260509222710 | 67 | 1 | 5.2 | 12.2 | 0.00 | 0.00 | 0.00 | 44 | 1011.4 |
| 20260509221711 | 67 | 302 | 2.6 | 7.8 | 0.00 | 0.00 | 0.00 | 48 | 1011.4 |
| 20260509220710 | 67 | 335 | 2.6 | 10.4 | 0.00 | 0.00 | 0.00 | 47 | 1011.3 |
| 20260509215710 | 68 | 329 | 2.6 | 10.4 | 0.00 | 0.00 | 0.00 | 48 | 1011.5 |
| 20260509214710 | 68 | 11 | 4.3 | 10.4 | 0.00 | 0.00 | 0.00 | 45 | 1011.3 |
| 20260509213710 | 68 | 5 | 7.0 | 14.8 | 0.00 | 0.00 | 0.00 | 45 | 1011.3 |
| 20260509212710 | 68 | 22 | 4.3 | 11.3 | 0.00 | 0.00 | 0.00 | 47 | 1011.1 |
| 20260509211710 | 69 | 5 | 5.2 | 7.8 | 0.00 | 0.00 | 0.00 | 48 | 1011.1 |
| 20260509210710 | 68 | 49 | 2.6 | 7.0 | 0.00 | 0.00 | 0.00 | 45 | 1011.0 |
| 20260509205710 | 68 | 9 | 2.6 | 10.4 | 0.00 | 0.00 | 0.00 | 44 | 1011.0 |
| 20260509202710 | 68 | 59 | 7.0 | 12.2 | 0.00 | 0.00 | 0.00 | 42 | 1010.9 |
| 20260509200711 | 68 | 28 | 8.7 | 17.4 | 0.00 | 0.00 | 0.00 | 42 | 1010.4 |
| 20260509195710 | 69 | 331 | 7.8 | 15.6 | 0.00 | 0.00 | 0.00 | 42 | 1010.2 |
| 20260509194711 | 70 | 5 | 8.7 | 15.6 | 0.00 | 0.00 | 0.00 | 40 | 1010.1 |
| 20260509193711 | 70 | 51 | 9.6 | 17.4 | 0.00 | 0.00 | 0.00 | 42 | 1009.9 |
| 20260509192711 | 71 | 334 | 11.3 | 18.2 | 0.00 | 0.00 | 0.00 | 39 | 1009.7 |
| 20260509191710 | 73 | 306 | 10.4 | 20.0 | 0.00 | 0.00 | 0.00 | 39 | 1009.3 |
| 20260509190711 | 76 | 9 | 10.4 | 17.4 | 0.00 | 0.00 | 0.00 | 33 | 1008.9 |
| 20260509185711 | 77 | 13 | 9.6 | 19.1 | 0.00 | 0.00 | 0.00 | 28 | 1008.5 |
| 20260509184711 | 78 | 19 | 8.7 | 19.1 | 0.00 | 0.00 | 0.00 | 31 | 1008.2 |
| 20260509180710 | 74 | 56 | 5.2 | 10.4 | 0.00 | 0.00 | 0.00 | 30 | 1007.8 |
| 20260509172710 | 73 | 334 | 7.8 | 12.2 | 0.00 | 0.00 | 0.00 | 30 | 1008.3 |
| 20260509171710 | 74 | 22 | 7.0 | 13.9 | 0.00 | 0.00 | 0.00 | 36 | 1008.2 |
| 20260509170710 | 73 | 313 | 5.2 | 13.9 | 0.00 | 0.00 | 0.00 | 36 | 1008.2 |
| 20260509165711 | 73 | 338 | 4.3 | 11.3 | 0.00 | 0.00 | 0.00 | 30 | 1008.2 |
| 20260509164711 | 73 | 5 | 6.1 | 11.3 | 0.00 | 0.00 | 0.00 | 31 | 1008.2 |
| 20260509162710 | 72 | 29 | 5.2 | 11.3 | 0.00 | 0.00 | 0.00 | 33 | 1007.7 |
| 20260509160711 | 71 | 52 | 0.0 | 4.3 | 0.00 | 0.00 | 0.00 | 42 | 1007.5 |
| 20260509155710 | 70 | 302 | 1.7 | 4.3 | 0.00 | 0.00 | 0.00 | 31 | 1007.4 |
| 20260509154710 | 70 | 9 | 0.9 | 4.3 | 0.00 | 0.00 | 0.00 | 36 | 1007.5 |
| 20260509153710 | 70 | 9 | 0.9 | 5.2 | 0.00 | 0.00 | 0.00 | 36 | 1007.5 |
| 20260509152710 | 70 | 333 | 0.9 | 8.7 | 0.00 | 0.00 | 0.00 | 37 | 1007.7 |
| 20260509151710 | 70 | 313 | 3.5 | 7.8 | 0.00 | 0.00 | 0.00 | 38 | 1007.8 |
| 20260509150710 | 69 | 357 | 3.5 | 10.4 | 0.00 | 0.00 | 0.00 | 38 | 1007.9 |
| 20260509145711 | 69 | 323 | 4.3 | 7.8 | 0.00 | 0.00 | 0.00 | 38 | 1007.9 |
| 20260509144710 | 68 | 309 | 5.2 | 10.4 | 0.00 | 0.00 | 0.00 | 44 | 1008.0 |
| 20260509143710 | 67 | 339 | 2.6 | 10.4 | 0.00 | 0.00 | 0.00 | 39 | 1007.8 |
| 20260509142710 | 66 | 331 | 3.5 | 11.3 | 0.00 | 0.00 | 0.00 | 44 | 1007.8 |
| 20260509141710 | 65 | 215 | 8.7 | 12.2 | 0.00 | 0.00 | 0.00 | 38 | 1007.0 |
| 20260509135710 | 62 | 218 | 6.1 | 10.4 | 0.00 | 0.00 | 0.00 | 43 | 1007.3 |
| 20260509134711 | 60 | 245 | 6.1 | 10.4 | 0.00 | 0.00 | 0.00 | 48 | 1007.2 |
| 20260509132710 | 57 | 219 | 2.6 | 6.1 | 0.00 | 0.00 | 0.00 | 56 | 1007.3 |
| 20260509131710 | 55 | 224 | 4.3 | 6.1 | 0.00 | 0.00 | 0.00 | 57 | 1007.4 |
| 20260509130711 | 53 | 250 | 4.3 | 7.0 | 0.00 | 0.00 | 0.00 | 60 | 1007.6 |
| 20260509125710 | 51 | 271 | 0.9 | 4.3 | 0.00 | 0.00 | 0.00 | 65 | 1007.6 |
| 20260509124710 | 49 | 232 | 0.9 | 2.6 | 0.00 | 0.00 | 0.00 | 66 | 1007.3 |
| 20260509123711 | 48 | 216 | 1.7 | 6.1 | 0.00 | 0.00 | 0.00 | 68 | 1007.1 |
| 20260509122711 | 46 | 214 | 3.5 | 4.3 | 0.00 | 0.00 | 0.00 | 71 | 1007.2 |
| 20260509120710 | 45 | 234 | 0.9 | 2.6 | 0.00 | 0.00 | 0.00 | 72 | 1007.0 |
| 20260509115710 | 45 | 251 | 0.9 | 1.7 | 0.00 | 0.00 | 0.00 | 72 | 1007.1 |
| 20260509114711 | 44 | 251 | 0.0 | 1.7 | 0.00 | 0.00 | 0.00 | 74 | 1007.0 |
| 20260509113711 | 44 | 251 | 0.9 | 1.7 | 0.00 | 0.00 | 0.00 | 73 | 1006.9 |
| 20260509111710 | 44 | 253 | 0.0 | 0.0 | 0.00 | 0.00 | 0.00 | 70 | 1006.8 |
| 20260509110710 | 44 | 252 | 0.0 | 1.7 | 0.00 | 0.00 | 0.00 | 71 | 1006.7 |
| 20260509105711 | 44 | 252 | 0.9 | 2.6 | 0.00 | 0.00 | 0.00 | 71 | 1006.6 |
| 20260509104711 | 44 | 261 | 1.7 | 2.6 | 0.00 | 0.00 | 0.00 | 71 | 1006.7 |
| 20260509103710 | 43 | 241 | 1.7 | 2.6 | 0.00 | 0.00 | 0.00 | 70 | 1006.9 |
| 20260509102710 | 44 | 228 | 0.9 | 1.7 | 0.00 | 0.00 | 0.00 | 70 | 1006.6 |
| 20260509101710 | 44 | 228 | 0.0 | 0.0 | 0.00 | 0.00 | 0.00 | 71 | 1006.5 |
| 20260509100710 | 44 | 228 | 0.0 | 0.0 | 0.00 | 0.00 | 0.00 | 69 | 1006.5 |
| 20260509095711 | 44 | 228 | 0.0 | 0.0 | 0.00 | 0.00 | 0.00 | 69 | 1006.5 |
| 20260509094711 | 44 | 204 | 0.0 | 0.0 | 0.00 | 0.00 | 0.00 | 68 | 1006.6 |
| 20260509093711 | 44 | 204 | 0.0 | 0.0 | 0.00 | 0.00 | 0.00 | 68 | 1006.8 |
| 20260509092711 | 45 | 204 | 0.0 | 0.0 | 0.00 | 0.00 | 0.00 | 68 | 1006.9 |
| 20260509091711 | 45 | 204 | 0.0 | 0.0 | 0.00 | 0.00 | 0.00 | 69 | 1006.8 |
| 20260509090711 | 45 | 204 | 0.0 | 0.0 | 0.00 | 0.00 | 0.00 | 65 | 1006.8 |
| 20260509085711 | 45 | 204 | 0.0 | 0.9 | 0.00 | 0.00 | 0.00 | 66 | 1006.7 |
| 20260509084711 | 45 | 204 | 0.0 | 2.6 | 0.00 | 0.00 | 0.00 | 65 | 1006.5 |
| 20260509083711 | 45 | 200 | 0.9 | 1.7 | 0.00 | 0.00 | 0.00 | 68 | 1006.5 |
| 20260509082710 | 45 | 261 | 1.7 | 1.7 | 0.00 | 0.00 | 0.00 | 69 | 1006.5 |
| 20260509075710 | 46 | 289 | 0.0 | 0.9 | 0.00 | 0.00 | 0.00 | 66 | 1006.4 |
| 20260509074711 | 47 | 289 | 0.0 | 1.7 | 0.00 | 0.00 | 0.00 | 66 | 1006.6 |
| 20260509073711 | 47 | 289 | 0.0 | 1.7 | 0.00 | 0.00 | 0.00 | 64 | 1006.6 |
| 20260509072710 | 47 | 289 | 0.9 | 0.9 | 0.00 | 0.00 | 0.00 | 63 | 1006.7 |
| 20260509071710 | 47 | 288 | 0.0 | 1.7 | 0.00 | 0.00 | 0.00 | 61 | 1006.8 |
| 20260509070710 | 48 | 289 | 0.0 | 0.0 | 0.00 | 0.00 | 0.00 | 58 | 1006.6 |
| 20260509065710 | 48 | 289 | 0.0 | 1.7 | 0.00 | 0.00 | 0.00 | 57 | 1006.7 |
| 20260509064710 | 48 | 288 | 0.0 | 1.7 | 0.00 | 0.00 | 0.00 | 55 | 1006.8 |
| 20260509063711 | 49 | 288 | 0.9 | 1.7 | 0.00 | 0.00 | 0.00 | 55 | 1006.9 |
| 20260509062711 | 49 | 288 | 0.0 | 0.0 | 0.00 | 0.00 | 0.00 | 54 | 1006.9 |
| 20260509060711 | 50 | 288 | 0.0 | 0.0 | 0.00 | 0.00 | 0.00 | 53 | 1007.1 |
| 20260509055710 | 50 | 288 | 0.0 | 0.0 | 0.00 | 0.00 | 0.00 | 53 | 1007.2 |
| 20260509054711 | 51 | 288 | 0.0 | 0.0 | 0.00 | 0.00 | 0.00 | 53 | 1007.3 |
| 20260509053710 | 51 | 288 | 0.0 | 0.0 | 0.00 | 0.00 | 0.00 | 53 | 1007.2 |
| 20260509052710 | 51 | 288 | 0.0 | 1.7 | 0.00 | 0.00 | 0.00 | 53 | 1007.3 |
| 20260509051711 | 52 | 288 | 0.0 | 2.6 | 0.00 | 0.00 | 0.00 | 53 | 1007.3 |
| 20260509050710 | 53 | 286 | 0.9 | 2.6 | 0.00 | 0.00 | 0.00 | 49 | 1007.3 |